createdAt,value
2022-12-29T00:03:08.515Z,71.57
2022-12-29T00:08:12.800Z,71.56
2022-12-29T00:13:33.611Z,71.80
2022-12-29T00:18:35.855Z,71.69
2022-12-29T00:23:57.796Z,71.52
2022-12-29T00:29:18.398Z,71.67
2022-12-29T00:34:38.989Z,71.76
2022-12-29T00:40:03.150Z,71.88
2022-12-29T00:45:05.913Z,71.54
2022-12-29T00:50:08.464Z,72.21
2022-12-29T00:55:10.629Z,71.69
2022-12-29T01:06:37.870Z,71.65
2022-12-29T01:11:41.646Z,71.81
2022-12-29T01:16:43.895Z,71.76
2022-12-29T01:21:47.312Z,71.70
2022-12-29T01:26:50.246Z,71.40
2022-12-29T01:31:52.641Z,71.41
2022-12-29T01:36:54.880Z,71.09
2022-12-29T01:41:57.007Z,71.02
2022-12-29T01:46:59.196Z,70.36
2022-12-29T01:52:06.680Z,70.43
2022-12-29T01:57:15.006Z,70.67
2022-12-29T02:02:17.867Z,70.62
2022-12-29T02:07:23.419Z,70.67
2022-12-29T02:12:28.500Z,71.09
2022-12-29T02:17:33.958Z,71.21
2022-12-29T02:22:47.881Z,71.31
2022-12-29T02:28:05.853Z,71.54
2022-12-29T02:33:23.536Z,71.77
2022-12-29T02:38:47.312Z,71.87
2022-12-29T02:44:10.284Z,71.97
2022-12-29T02:49:17.641Z,71.93
2022-12-29T02:54:40.147Z,72.05
2022-12-29T02:59:45.150Z,72.13
2022-12-29T03:05:19.791Z,72.08
2022-12-29T03:10:30.902Z,72.12
2022-12-29T03:16:05.680Z,71.95
2022-12-29T03:21:17.837Z,71.70
2022-12-29T03:26:22.212Z,71.43
2022-12-29T03:31:25.894Z,71.60
2022-12-29T03:36:52.135Z,71.58
2022-12-29T03:42:03.318Z,71.75
2022-12-29T03:47:06.962Z,71.41
2022-12-29T03:52:12.275Z,71.57
2022-12-29T03:57:14.469Z,71.16
2022-12-29T04:02:16.698Z,71.28
2022-12-29T04:07:20.628Z,71.04
2022-12-29T04:12:22.872Z,71.24
2022-12-29T04:17:24.987Z,71.09
2022-12-29T04:22:27.168Z,71.52
2022-12-29T04:27:29.343Z,71.07
2022-12-29T04:32:31.512Z,71.02
2022-12-29T04:37:35.249Z,71.05
2022-12-29T04:42:37.580Z,70.83
2022-12-29T04:47:39.806Z,70.63
2022-12-29T04:52:41.975Z,71.21
2022-12-29T04:57:44.205Z,71.31
2022-12-29T05:02:46.870Z,71.26
2022-12-29T05:07:49.172Z,71.45
2022-12-29T05:12:54.281Z,71.20
2022-12-29T05:17:56.694Z,71.23
2022-12-29T05:22:59.932Z,70.87
2022-12-29T05:28:02.071Z,70.76
2022-12-29T05:33:04.449Z,71.07
2022-12-29T05:38:06.608Z,71.09
2022-12-29T05:43:10.038Z,71.53
2022-12-29T05:48:12.147Z,71.25
2022-12-29T05:53:14.354Z,71.50
2022-12-29T05:58:19.611Z,71.19
2022-12-29T06:03:21.927Z,71.34
2022-12-29T06:08:24.186Z,70.94
2022-12-29T06:13:26.396Z,71.47
2022-12-29T06:18:28.769Z,71.07
2022-12-29T06:23:33.461Z,70.87
2022-12-29T06:28:35.724Z,71.27
2022-12-29T06:33:38.975Z,71.26
2022-12-29T06:38:43.943Z,71.44
2022-12-29T06:43:46.177Z,71.64
2022-12-29T06:48:48.529Z,71.59
2022-12-29T06:53:50.692Z,71.24
2022-12-29T06:58:52.865Z,70.95
2022-12-29T07:04:03.889Z,71.08
2022-12-29T07:09:06.119Z,71.21
2022-12-29T07:14:08.383Z,70.79
2022-12-29T07:19:10.710Z,70.64
2022-12-29T07:24:16.565Z,71.01
2022-12-29T07:29:25.323Z,71.00
2022-12-29T07:34:28.765Z,70.93
2022-12-29T07:39:30.892Z,71.15
2022-12-29T07:44:33.073Z,70.44
2022-12-29T07:49:35.563Z,70.39
2022-12-29T07:54:38.807Z,70.21
2022-12-29T07:59:41.439Z,69.99
2022-12-29T08:04:43.657Z,69.81
2022-12-29T08:09:45.800Z,70.01
2022-12-29T08:14:48.014Z,70.08
2022-12-29T08:19:50.289Z,70.02
2022-12-29T08:24:52.898Z,69.37
2022-12-29T08:29:56.589Z,69.87
2022-12-29T08:34:58.816Z,69.50
2022-12-29T08:40:05.034Z,69.46
2022-12-29T08:45:08.337Z,69.11
2022-12-29T08:50:10.656Z,68.58
2022-12-29T08:55:15.862Z,68.51
2022-12-29T09:00:18.311Z,68.23
2022-12-29T09:05:20.616Z,67.97
2022-12-29T09:10:22.836Z,67.55
2022-12-29T09:15:25.233Z,67.34
2022-12-29T09:20:27.423Z,67.10
2022-12-29T09:25:30.452Z,67.21
2022-12-29T09:30:32.599Z,66.61
2022-12-29T09:35:34.749Z,66.33
2022-12-29T09:40:37.305Z,66.04
2022-12-29T09:45:47.286Z,66.15
2022-12-29T09:50:51.670Z,66.31
2022-12-29T09:55:59.485Z,65.78
2022-12-29T10:01:15.947Z,65.31
2022-12-29T10:06:33.106Z,65.22
2022-12-29T10:11:54.248Z,64.74
2022-12-29T10:17:17.050Z,64.38
2022-12-29T10:22:21.905Z,64.00
2022-12-29T10:27:25.393Z,63.75
2022-12-29T10:32:41.902Z,63.62
2022-12-29T10:37:54.307Z,63.40
2022-12-29T10:48:31.809Z,62.24
2022-12-29T11:10:36.245Z,61.26
2022-12-29T11:15:57.348Z,61.05
2022-12-29T11:21:05.512Z,60.30
2022-12-29T11:26:22.250Z,60.54
2022-12-29T11:31:24.722Z,60.23
2022-12-29T11:36:27.441Z,59.99
2022-12-29T11:41:32.513Z,59.48
2022-12-29T11:46:39.786Z,59.19
2022-12-29T11:51:49.067Z,59.30
2022-12-29T11:56:53.121Z,59.02
2022-12-29T12:01:56.959Z,58.66
2022-12-29T12:07:11.927Z,58.11
2022-12-29T12:12:32.943Z,58.56
2022-12-29T12:17:44.799Z,57.80
2022-12-29T12:23:00.418Z,56.62
2022-12-29T12:28:07.046Z,56.77
2022-12-29T12:33:27.717Z,57.22
2022-12-29T12:38:51.656Z,57.17
2022-12-29T12:44:15.547Z,56.76
2022-12-29T12:49:55.695Z,56.22
2022-12-29T12:55:36.944Z,56.51
2022-12-29T13:00:50.921Z,55.26
2022-12-29T13:06:02.775Z,55.21
2022-12-29T13:11:23.323Z,55.17
2022-12-29T13:16:55.002Z,54.89
2022-12-29T13:22:14.968Z,54.58
2022-12-29T13:27:20.549Z,55.65
2022-12-29T13:32:35.097Z,53.79
2022-12-29T13:37:48.639Z,53.65
2022-12-29T13:42:52.097Z,52.79
2022-12-29T13:48:01.625Z,52.63
2022-12-29T13:53:06.344Z,52.22
2022-12-29T13:58:40.215Z,52.75
2022-12-29T14:03:49.550Z,52.56
2022-12-29T14:08:55.346Z,52.55
2022-12-29T14:13:58.245Z,52.87
2022-12-29T14:19:17.069Z,52.93
2022-12-29T14:24:44.097Z,53.05
2022-12-29T14:29:48.698Z,51.89
2022-12-29T14:34:54.293Z,51.28
2022-12-29T14:40:30.576Z,51.34
2022-12-29T14:45:38.829Z,50.81
2022-12-29T14:50:44.998Z,50.23
2022-12-29T14:55:57.414Z,50.30
2022-12-29T15:01:01.193Z,50.79
2022-12-29T15:06:10.319Z,51.84
2022-12-29T15:11:19.247Z,52.74
2022-12-29T15:16:27.772Z,53.73
2022-12-29T15:21:37.777Z,54.75
2022-12-29T15:26:47.950Z,56.17
2022-12-29T15:31:50.191Z,57.01
2022-12-29T15:36:52.781Z,57.72
2022-12-29T15:42:27.985Z,58.42
2022-12-29T15:47:31.762Z,59.50
2022-12-29T15:52:35.393Z,59.92
2022-12-29T15:57:44.570Z,60.62
2022-12-29T16:02:47.528Z,61.11
2022-12-29T16:08:01.363Z,61.57
2022-12-29T16:13:27.964Z,61.71
2022-12-29T16:18:35.552Z,62.16
2022-12-29T16:23:38.411Z,62.33
2022-12-29T16:28:45.709Z,62.52
2022-12-29T16:33:52.766Z,62.91
2022-12-29T16:39:25.399Z,62.88
2022-12-29T16:44:30.433Z,63.15
2022-12-29T16:49:38.021Z,63.30
2022-12-29T16:54:42.325Z,63.74
2022-12-29T16:59:46.483Z,63.79
2022-12-29T17:04:50.951Z,64.24
2022-12-29T17:09:56.436Z,64.97
2022-12-29T17:15:07.054Z,64.64
2022-12-29T17:20:27.208Z,64.65
2022-12-29T17:25:38.354Z,65.05
2022-12-29T17:30:41.351Z,65.11
2022-12-29T17:35:43.773Z,65.61
2022-12-29T17:40:46.236Z,65.93
2022-12-29T17:45:54.166Z,65.84
2022-12-29T17:50:58.531Z,66.10
2022-12-29T17:56:00.743Z,67.67
2022-12-29T18:01:03.912Z,67.57
2022-12-29T18:06:08.752Z,67.49
2022-12-29T18:11:23.495Z,68.15
2022-12-29T18:16:25.761Z,68.33
2022-12-29T18:21:27.935Z,67.79
2022-12-29T18:26:32.162Z,67.44
2022-12-29T18:31:36.991Z,67.99
2022-12-29T18:36:39.394Z,67.76
2022-12-29T18:41:41.578Z,66.85
2022-12-29T18:46:44.055Z,66.71
2022-12-29T18:51:46.304Z,66.82
2022-12-29T18:56:48.490Z,66.90
2022-12-29T19:01:51.040Z,67.20
2022-12-29T19:06:53.384Z,67.64
2022-12-29T19:11:55.595Z,67.37
2022-12-29T19:16:57.776Z,67.60
2022-12-29T19:22:00.021Z,67.71
2022-12-29T19:27:02.291Z,68.07
2022-12-29T19:32:06.107Z,67.78
2022-12-29T19:37:08.327Z,67.74
2022-12-29T19:42:10.519Z,68.58
2022-12-29T19:47:20.705Z,68.20
2022-12-29T19:52:23.929Z,68.32
2022-12-29T19:57:27.108Z,68.43
2022-12-29T20:02:32.716Z,68.30
2022-12-29T20:07:35.556Z,68.46
2022-12-29T20:12:38.814Z,68.51
2022-12-29T20:23:03.387Z,69.17
2022-12-29T20:28:05.667Z,69.00
2022-12-29T20:33:09.438Z,68.20
2022-12-29T20:38:11.725Z,68.19
2022-12-29T20:43:16.553Z,68.48
2022-12-29T20:48:18.837Z,68.44
2022-12-29T20:53:21.188Z,68.53
2022-12-29T20:58:24.676Z,68.42
2022-12-29T21:03:27.432Z,68.90
2022-12-29T21:08:33.196Z,68.88
2022-12-29T21:13:35.861Z,69.00
2022-12-29T21:18:38.186Z,68.65
2022-12-29T21:23:40.893Z,68.99
2022-12-29T21:28:44.687Z,69.02
2022-12-29T21:33:50.723Z,68.99
2022-12-29T21:38:53.628Z,69.02
2022-12-29T21:44:14.482Z,69.07
2022-12-29T21:49:16.916Z,69.12
2022-12-29T21:54:41.581Z,69.49
2022-12-29T22:00:02.016Z,69.53
2022-12-29T22:05:24.044Z,69.69
2022-12-29T22:10:44.916Z,69.71
2022-12-29T22:15:47.180Z,69.23
2022-12-29T22:20:49.384Z,69.19
2022-12-29T22:25:53.112Z,69.09
2022-12-29T22:30:58.456Z,68.99
2022-12-29T22:36:00.658Z,69.14
2022-12-29T22:41:03.106Z,69.37
2022-12-29T22:46:08.058Z,69.22
2022-12-29T22:51:10.276Z,69.15
2022-12-29T22:56:14.087Z,69.42
2022-12-29T23:01:18.625Z,69.25
2022-12-29T23:06:20.913Z,69.30
2022-12-29T23:11:23.939Z,68.87
2022-12-29T23:16:26.748Z,68.90
2022-12-29T23:21:28.995Z,69.30
2022-12-29T23:26:37.166Z,69.42
2022-12-29T23:31:40.058Z,69.46
2022-12-29T23:36:43.940Z,69.81
2022-12-29T23:41:46.409Z,69.61
2022-12-29T23:46:48.747Z,69.39
2022-12-29T23:51:51.003Z,69.52
2022-12-29T23:56:53.222Z,69.49
